Time;durP1;ratioP1;P1;durP2;ratioP2;P2;SDS_P1;SDS_P2;PMS_P1;PMS_P2;Temp;Humidity;BMP_temperature;BMP_pressure;BME280_temperature;BME280_humidity;BME280_pressure;Samples;Min_cycle;Max_cycle;Signal;HPM_P1;HPM_P2
2023/11/07 00:01:41;;;;;;;3.75;2.80;;;;;;;;;;5886563;28;20097;-66
2023/11/07 00:04:32;;;;;;;4.68;2.55;;;;;;;;;;5886829;28;20045;-66
2023/11/07 00:07:23;;;;;;;6.78;3.72;;;;;;;;;;5886701;28;20072;-66
2023/11/07 00:10:14;;;;;;;4.40;3.15;;;;;;;;;;5886067;28;20083;-66
2023/11/07 00:13:04;;;;;;;4.40;3.33;;;;;;;;;;5885215;28;20059;-66
2023/11/07 00:15:55;;;;;;;2.75;2.45;;;;;;;;;;5886976;28;20060;-66
2023/11/07 00:18:47;;;;;;;5.85;3.85;;;;;;;;;;5886081;28;20049;-65
2023/11/07 00:21:38;;;;;;;7.15;4.13;;;;;;;;;;5886155;28;20045;-66
2023/11/07 00:24:29;;;;;;;10.13;3.10;;;;;;;;;;5886086;28;20053;-66
2023/11/07 00:27:19;;;;;;;3.25;1.95;;;;;;;;;;5885998;28;20395;-66
2023/11/07 00:30:11;;;;;;;4.80;2.75;;;;;;;;;;5886090;28;20525;-66
2023/11/07 00:33:02;;;;;;;3.85;2.47;;;;;;;;;;5885960;28;20144;-66
2023/11/07 00:35:52;;;;;;;6.22;2.83;;;;;;;;;;5886257;28;20049;-66
2023/11/07 00:38:44;;;;;;;6.43;3.65;;;;;;;;;;5885786;28;20422;-66
2023/11/07 00:41:35;;;;;;;4.45;3.95;;;;;;;;;;5885939;28;20055;-66
2023/11/07 00:44:25;;;;;;;7.85;3.17;;;;;;;;;;5885756;28;20126;-66
2023/11/07 00:47:16;;;;;;;1.90;1.80;;;;;;;;;;5885819;28;20482;-66
2023/11/07 00:50:10;;;;;;;3.30;2.85;;;;;;;;;;5885679;28;20498;-66
2023/11/07 00:53:01;;;;;;;4.97;2.55;;;;;;;;;;5885515;28;20060;-67
2023/11/07 00:55:52;;;;;;;7.03;4.93;;;;;;;;;;5886224;28;20048;-66
2023/11/07 00:58:43;;;;;;;6.95;4.10;;;;;;;;;;5885379;28;20037;-66
2023/11/07 01:01:33;;;;;;;4.38;2.75;;;;;;;;;;5891073;28;20044;-66
2023/11/07 01:04:24;;;;;;;6.85;3.75;;;;;;;;;;5908808;28;20391;-66
2023/11/07 01:07:15;;;;;;;6.10;3.53;;;;;;;;;;5890882;28;20048;-66
2023/11/07 01:10:07;;;;;;;2.40;2.20;;;;;;;;;;5908866;28;20049;-66
2023/11/07 01:12:58;;;;;;;7.70;2.92;;;;;;;;;;5909239;28;20367;-66
2023/11/07 01:15:49;;;;;;;8.32;5.22;;;;;;;;;;5908842;28;20487;-65
2023/11/07 01:18:40;;;;;;;7.90;3.20;;;;;;;;;;5908655;28;20071;-66
2023/11/07 01:21:31;;;;;;;10.40;4.63;;;;;;;;;;5910495;28;20421;-66
2023/11/07 01:24:21;;;;;;;2.20;2.00;;;;;;;;;;5913603;28;20052;-66
2023/11/07 01:27:12;;;;;;;6.80;3.42;;;;;;;;;;5913224;28;20048;-66
2023/11/07 01:30:07;;;;;;;4.38;2.92;;;;;;;;;;5913413;28;20056;-66
2023/11/07 01:32:58;;;;;;;2.85;1.90;;;;;;;;;;5913708;28;20074;-65
2023/11/07 01:35:49;;;;;;;8.55;3.67;;;;;;;;;;5913060;28;20086;-65
2023/11/07 01:38:40;;;;;;;3.38;2.72;;;;;;;;;;5913254;28;20148;-65
2023/11/07 01:41:31;;;;;;;2.70;2.13;;;;;;;;;;5913167;28;20055;-66
2023/11/07 01:44:28;;;;;;;8.57;3.00;;;;;;;;;;5912996;28;20123;-66
2023/11/07 01:47:25;;;;;;;3.13;2.50;;;;;;;;;;5913320;28;20137;-66
2023/11/07 01:50:16;;;;;;;5.28;2.53;;;;;;;;;;5912919;28;20048;-66
2023/11/07 01:53:07;;;;;;;5.30;3.55;;;;;;;;;;5912727;28;20418;-66
2023/11/07 01:55:58;;;;;;;2.67;2.42;;;;;;;;;;5913399;28;20494;-65
2023/11/07 01:58:53;;;;;;;2.95;2.47;;;;;;;;;;5911289;28;20048;-66
2023/11/07 02:01:47;;;;;;;4.28;2.65;;;;;;;;;;5912879;28;20076;-66
2023/11/07 02:04:38;;;;;;;8.55;3.03;;;;;;;;;;5911117;28;20053;-65
2023/11/07 02:07:30;;;;;;;5.38;3.25;;;;;;;;;;5912359;28;20044;-65
2023/11/07 02:10:21;;;;;;;4.35;2.70;;;;;;;;;;5912546;28;20060;-66
2023/11/07 02:13:12;;;;;;;5.20;3.83;;;;;;;;;;5912378;28;20048;-65
2023/11/07 02:16:03;;;;;;;6.15;4.15;;;;;;;;;;5912438;28;20151;-66
2023/11/07 02:18:55;;;;;;;6.13;3.42;;;;;;;;;;5912556;28;20056;-66
2023/11/07 02:21:47;;;;;;;3.38;2.60;;;;;;;;;;5912185;28;20048;-65
2023/11/07 02:24:38;;;;;;;4.22;2.80;;;;;;;;;;5912241;28;20516;-65
2023/11/07 02:27:29;;;;;;;2.63;2.00;;;;;;;;;;5912161;28;20040;-65
2023/11/07 02:30:22;;;;;;;4.50;2.60;;;;;;;;;;5912219;28;20058;-66
2023/11/07 02:33:14;;;;;;;7.43;3.10;;;;;;;;;;5910356;28;20125;-65
2023/11/07 02:36:05;;;;;;;2.35;1.85;;;;;;;;;;5912126;28;20797;-66
2023/11/07 02:38:56;;;;;;;3.97;3.40;;;;;;;;;;5911059;28;20102;-65
2023/11/07 02:41:47;;;;;;;4.80;2.95;;;;;;;;;;5911943;28;20686;-66
2023/11/07 02:44:38;;;;;;;5.07;3.17;;;;;;;;;;5911677;28;20187;-66
2023/11/07 02:47:29;;;;;;;10.77;2.38;;;;;;;;;;5911891;28;20418;-66
2023/11/07 02:50:20;;;;;;;8.35;4.10;;;;;;;;;;5911255;28;20051;-66
2023/11/07 02:53:11;;;;;;;6.65;3.83;;;;;;;;;;5910375;28;20453;-66
2023/11/07 02:56:02;;;;;;;6.32;3.92;;;;;;;;;;5910263;28;20048;-66
2023/11/07 02:58:54;;;;;;;5.97;3.42;;;;;;;;;;5911453;28;20083;-66
2023/11/07 03:01:45;;;;;;;6.20;3.20;;;;;;;;;;5911268;28;20501;-66
2023/11/07 03:04:35;;;;;;;6.47;3.03;;;;;;;;;;5911166;28;20064;-66
2023/11/07 03:07:26;;;;;;;9.18;4.50;;;;;;;;;;5909921;28;20387;-66
2023/11/07 03:10:17;;;;;;;9.52;3.47;;;;;;;;;;5911120;28;20494;-66
2023/11/07 03:13:08;;;;;;;5.60;4.05;;;;;;;;;;5911199;28;20048;-66
2023/11/07 03:15:59;;;;;;;4.78;2.55;;;;;;;;;;5911921;28;20049;-66
2023/11/07 03:18:50;;;;;;;6.50;4.18;;;;;;;;;;5911053;28;20037;-65
2023/11/07 03:21:41;;;;;;;7.50;4.30;;;;;;;;;;5910906;28;20072;-66
2023/11/07 03:24:31;;;;;;;4.15;3.45;;;;;;;;;;5911074;28;20044;-66
2023/11/07 03:27:22;;;;;;;6.35;3.53;;;;;;;;;;5910747;28;20055;-66
2023/11/07 03:30:13;;;;;;;5.07;3.28;;;;;;;;;;5910561;28;20056;-66
2023/11/07 03:33:03;;;;;;;7.03;3.15;;;;;;;;;;5909502;28;20052;-66
2023/11/07 03:35:56;;;;;;;4.70;3.30;;;;;;;;;;5910929;28;20075;-66
2023/11/07 03:38:48;;;;;;;6.13;4.03;;;;;;;;;;5910519;28;20052;-66
2023/11/07 03:41:41;;;;;;;6.18;2.63;;;;;;;;;;5910522;28;20095;-66
2023/11/07 03:44:33;;;;;;;9.05;2.65;;;;;;;;;;5909838;28;20056;-66
2023/11/07 03:47:24;;;;;;;3.78;2.13;;;;;;;;;;5910343;28;20049;-66
2023/11/07 03:50:15;;;;;;;7.20;3.10;;;;;;;;;;5910113;28;20516;-66
2023/11/07 03:53:06;;;;;;;8.82;2.92;;;;;;;;;;5908970;28;20063;-67
2023/11/07 03:55:58;;;;;;;4.85;1.95;;;;;;;;;;5910578;28;20055;-66
2023/11/07 03:58:49;;;;;;;4.20;3.35;;;;;;;;;;5910006;28;20048;-66
2023/11/07 04:01:39;;;;;;;7.53;2.50;;;;;;;;;;5909970;28;20489;-66
2023/11/07 04:04:31;;;;;;;1.33;1.08;;;;;;;;;;5903738;28;20052;-66
2023/11/07 04:07:21;;;;;;;3.95;2.28;;;;;;;;;;5899377;28;20415;-66
2023/11/07 04:10:13;;;;;;;7.20;3.20;;;;;;;;;;5909787;28;20052;-66
2023/11/07 04:13:05;;;;;;;5.45;2.88;;;;;;;;;;5909811;28;20062;-67
2023/11/07 04:15:56;;;;;;;7.50;3.22;;;;;;;;;;5909505;28;20162;-66
2023/11/07 04:18:47;;;;;;;4.70;3.08;;;;;;;;;;5909770;28;20814;-66
2023/11/07 04:21:38;;;;;;;2.92;1.92;;;;;;;;;;5909758;28;20048;-67
2023/11/07 04:24:30;;;;;;;4.57;2.65;;;;;;;;;;5909446;28;20498;-66
2023/11/07 04:27:22;;;;;;;8.43;3.22;;;;;;;;;;5909519;28;20052;-67
2023/11/07 04:30:13;;;;;;;5.15;4.05;;;;;;;;;;5909121;28;20434;-66
2023/11/07 04:33:04;;;;;;;13.93;4.40;;;;;;;;;;5909499;28;20052;-67
2023/11/07 04:35:55;;;;;;;21.85;6.00;;;;;;;;;;5909811;28;20057;-66
2023/11/07 04:38:46;;;;;;;17.17;7.10;;;;;;;;;;5909119;28;20044;-66
2023/11/07 04:41:37;;;;;;;16.20;5.72;;;;;;;;;;5909377;28;20510;-66
2023/11/07 04:44:27;;;;;;;7.55;4.85;;;;;;;;;;5907685;28;20486;-66
2023/11/07 04:47:19;;;;;;;5.18;2.88;;;;;;;;;;5909112;28;20056;-67
2023/11/07 04:50:11;;;;;;;9.93;3.75;;;;;;;;;;5909264;28;20052;-67
2023/11/07 04:53:04;;;;;;;14.68;6.15;;;;;;;;;;5908883;28;20052;-67
2023/11/07 04:55:55;;;;;;;9.35;5.57;;;;;;;;;;5908636;28;20052;-66
2023/11/07 04:58:46;;;;;;;8.70;4.55;;;;;;;;;;5909007;28;20419;-66
2023/11/07 05:01:49;;;;;;;13.95;5.00;;;;;;;;;;5909120;28;20418;-66
2023/11/07 05:04:40;;;;;;;15.98;5.45;;;;;;;;;;5908939;28;20048;-66
2023/11/07 05:07:31;;;;;;;12.90;3.50;;;;;;;;;;5909077;28;20071;-67
2023/11/07 05:10:22;;;;;;;13.68;4.13;;;;;;;;;;5908922;28;20044;-67
2023/11/07 05:13:14;;;;;;;8.20;2.80;;;;;;;;;;5908768;28;20048;-67
2023/11/07 05:16:05;;;;;;;7.25;3.90;;;;;;;;;;5908863;28;20541;-67
2023/11/07 05:18:56;;;;;;;8.40;4.47;;;;;;;;;;5909068;28;20059;-66
2023/11/07 05:21:47;;;;;;;11.75;5.30;;;;;;;;;;5908875;28;20049;-67
2023/11/07 05:24:38;;;;;;;18.00;7.10;;;;;;;;;;5908647;28;20370;-67
2023/11/07 05:27:29;;;;;;;8.45;5.00;;;;;;;;;;5908675;28;20048;-66
2023/11/07 05:30:20;;;;;;;15.55;6.72;;;;;;;;;;5908526;28;20052;-67
2023/11/07 05:33:12;;;;;;;9.40;6.35;;;;;;;;;;5908518;28;20045;-67
2023/11/07 05:36:03;;;;;;;5.75;4.10;;;;;;;;;;5908822;28;20094;-67
2023/11/07 05:38:54;;;;;;;13.57;3.88;;;;;;;;;;5908774;28;20099;-66
2023/11/07 05:41:47;;;;;;;19.48;6.03;;;;;;;;;;5908491;28;20045;-66
2023/11/07 05:44:39;;;;;;;5.97;2.78;;;;;;;;;;5908351;28;20048;-67
2023/11/07 05:47:29;;;;;;;12.02;5.43;;;;;;;;;;5908373;28;20508;-66
2023/11/07 05:50:25;;;;;;;9.73;5.22;;;;;;;;;;5908432;28;20213;-67
2023/11/07 05:53:19;;;;;;;11.93;4.95;;;;;;;;;;5908182;28;20049;-67
2023/11/07 05:56:09;;;;;;;14.20;5.20;;;;;;;;;;5908259;28;20048;-67
2023/11/07 05:59:00;;;;;;;4.85;3.05;;;;;;;;;;5908779;28;20044;-66
2023/11/07 06:01:51;;;;;;;5.32;3.13;;;;;;;;;;5908549;28;20048;-66
2023/11/07 06:04:42;;;;;;;3.65;2.65;;;;;;;;;;5908217;28;20497;-66
2023/11/07 06:07:33;;;;;;;13.55;5.05;;;;;;;;;;5909839;28;20048;-66
2023/11/07 06:10:25;;;;;;;8.63;4.10;;;;;;;;;;5912530;28;20044;-67
2023/11/07 06:13:16;;;;;;;11.63;4.97;;;;;;;;;;5912394;28;20517;-66
2023/11/07 06:16:07;;;;;;;13.23;6.00;;;;;;;;;;5912432;28;20414;-67
2023/11/07 06:18:58;;;;;;;10.55;5.18;;;;;;;;;;5912948;28;20367;-67
2023/11/07 06:21:49;;;;;;;8.15;4.57;;;;;;;;;;5912201;28;20121;-67
2023/11/07 06:24:41;;;;;;;5.88;4.32;;;;;;;;;;5912173;28;20051;-67
2023/11/07 06:27:32;;;;;;;3.38;2.83;;;;;;;;;;5912091;28;20048;-66
2023/11/07 06:30:23;;;;;;;6.55;3.92;;;;;;;;;;5912191;28;20380;-67
2023/11/07 06:33:14;;;;;;;7.03;4.00;;;;;;;;;;5911704;28;20049;-67
2023/11/07 06:36:05;;;;;;;9.60;3.88;;;;;;;;;;5912202;28;20059;-67
2023/11/07 06:38:56;;;;;;;6.18;4.72;;;;;;;;;;5912315;28;20052;-67
2023/11/07 06:41:47;;;;;;;5.00;3.17;;;;;;;;;;5911837;28;20059;-66
2023/11/07 06:44:38;;;;;;;7.28;3.95;;;;;;;;;;5911579;28;20128;-67
2023/11/07 06:47:29;;;;;;;8.25;5.35;;;;;;;;;;5911749;28;20125;-66
2023/11/07 06:50:20;;;;;;;5.55;4.47;;;;;;;;;;5911699;28;20054;-67
2023/11/07 06:53:11;;;;;;;3.17;2.72;;;;;;;;;;5911427;28;20051;-67
2023/11/07 06:56:02;;;;;;;5.80;3.45;;;;;;;;;;5911706;28;20494;-67
2023/11/07 06:58:53;;;;;;;6.22;3.75;;;;;;;;;;5911625;28;20056;-67
2023/11/07 07:01:47;;;;;;;7.07;4.63;;;;;;;;;;5911355;28;20045;-66
2023/11/07 07:04:38;;;;;;;7.10;4.00;;;;;;;;;;5911447;28;20044;-67
2023/11/07 07:07:28;;;;;;;7.88;3.97;;;;;;;;;;5911281;28;20418;-67
2023/11/07 07:10:19;;;;;;;5.90;3.92;;;;;;;;;;5911117;28;20044;-67
2023/11/07 07:45:29;;;;;;;3.65;1.60;;;;;;;;;;5909782;28;20083;-67
2023/11/07 07:48:38;;;;;;;2.33;1.92;;;;;;;;;;5909969;28;20128;-67
2023/11/07 07:51:29;;;;;;;2.28;1.98;;;;;;;;;;5910484;28;20052;-66
2023/11/07 07:54:24;;;;;;;3.75;2.20;;;;;;;;;;5910351;28;20076;-67
2023/11/07 07:57:17;;;;;;;8.13;2.20;;;;;;;;;;5910508;28;20056;-67
2023/11/07 08:00:12;;;;;;;8.48;3.95;;;;;;;;;;5910205;28;20060;-67
2023/11/07 08:03:06;;;;;;;4.18;2.65;;;;;;;;;;5909988;28;20106;-67
2023/11/07 08:05:58;;;;;;;6.18;3.08;;;;;;;;;;5910537;28;20422;-67
2023/11/07 08:08:49;;;;;;;5.72;2.92;;;;;;;;;;5909796;28;20202;-67
2023/11/07 08:11:41;;;;;;;4.80;2.50;;;;;;;;;;5909980;28;20044;-67
2023/11/07 08:14:32;;;;;;;9.23;2.97;;;;;;;;;;5909767;28;20502;-67
2023/11/07 08:17:23;;;;;;;6.00;2.97;;;;;;;;;;5909748;28;20051;-67
2023/11/07 08:20:14;;;;;;;5.80;2.50;;;;;;;;;;5909493;28;20048;-68
2023/11/07 08:23:05;;;;;;;3.03;1.65;;;;;;;;;;5909603;28;20538;-68
2023/11/07 08:25:57;;;;;;;2.60;1.58;;;;;;;;;;5910239;28;20056;-68
2023/11/07 08:28:48;;;;;;;1.75;1.25;;;;;;;;;;5909678;28;20525;-68
2023/11/07 08:31:39;;;;;;;3.47;1.65;;;;;;;;;;5909717;28;20047;-68
2023/11/07 08:34:32;;;;;;;2.45;1.27;;;;;;;;;;5909952;28;20413;-68
2023/11/07 08:37:23;;;;;;;1.73;1.17;;;;;;;;;;5909419;28;20046;-68
2023/11/07 08:40:19;;;;;;;4.10;1.20;;;;;;;;;;5909144;28;20506;-68
2023/11/07 08:43:10;;;;;;;3.40;1.60;;;;;;;;;;5909475;28;20068;-68
2023/11/07 08:46:01;;;;;;;2.50;1.60;;;;;;;;;;5909335;28;20048;-68
2023/11/07 08:48:53;;;;;;;4.97;2.28;;;;;;;;;;5909482;28;20494;-68
2023/11/07 08:51:50;;;;;;;1.73;1.17;;;;;;;;;;5909403;28;20052;-68
2023/11/07 08:54:41;;;;;;;2.03;1.20;;;;;;;;;;5909121;28;20505;-68
2023/11/07 08:57:36;;;;;;;1.20;0.60;;;;;;;;;;5909136;28;20055;-68
2023/11/07 09:00:27;;;;;;;9.30;1.13;;;;;;;;;;5909224;28;20421;-68
2023/11/07 09:03:18;;;;;;;1.85;1.25;;;;;;;;;;5908882;28;20054;-68
2023/11/07 09:06:09;;;;;;;2.28;1.67;;;;;;;;;;5909379;28;20045;-68
2023/11/07 09:09:00;;;;;;;3.83;1.17;;;;;;;;;;5909509;28;20109;-67
2023/11/07 09:11:51;;;;;;;1.67;1.30;;;;;;;;;;5908952;28;20090;-67
2023/11/07 09:14:44;;;;;;;3.45;1.17;;;;;;;;;;5907573;28;20131;-68
2023/11/07 09:17:35;;;;;;;1.92;1.15;;;;;;;;;;5909068;28;20052;-68
2023/11/07 09:20:26;;;;;;;4.00;1.63;;;;;;;;;;5908866;28;20056;-68
2023/11/07 09:23:17;;;;;;;1.88;0.88;;;;;;;;;;5908914;28;20106;-68
2023/11/07 09:26:08;;;;;;;1.08;0.93;;;;;;;;;;5908959;28;20048;-68
2023/11/07 09:28:59;;;;;;;1.00;0.80;;;;;;;;;;5909065;28;20045;-68
2023/11/07 09:31:52;;;;;;;20.35;1.17;;;;;;;;;;5909157;28;20045;-67
2023/11/07 09:34:43;;;;;;;1.63;1.35;;;;;;;;;;5908640;28;20052;-68
2023/11/07 09:37:39;;;;;;;2.88;1.52;;;;;;;;;;5908225;28;20075;-68
2023/11/07 09:40:31;;;;;;;2.05;1.30;;;;;;;;;;5908600;28;20054;-67
2023/11/07 09:43:26;;;;;;;1.92;1.10;;;;;;;;;;5911657;28;20044;-68
2023/11/07 09:46:21;;;;;;;1.23;0.85;;;;;;;;;;5913401;28;20135;-68
2023/11/07 09:49:13;;;;;;;4.50;0.80;;;;;;;;;;5912860;28;20050;-67
2023/11/07 09:52:06;;;;;;;0.77;0.47;;;;;;;;;;5913199;28;20053;-68
2023/11/07 09:54:59;;;;;;;5.15;0.93;;;;;;;;;;5913429;28;20052;-67
2023/11/07 09:58:08;;;;;;;1.25;0.95;;;;;;;;;;5911927;28;20510;-67
2023/11/07 10:01:07;;;;;;;1.07;0.60;;;;;;;;;;5912877;28;20516;-67
2023/11/07 10:03:58;;;;;;;0.55;0.40;;;;;;;;;;5913360;28;20283;-68
2023/11/07 10:06:49;;;;;;;1.10;0.40;;;;;;;;;;5912953;28;20040;-67
2023/11/07 10:09:40;;;;;;;15.60;0.90;;;;;;;;;;5912915;28;20041;-67
2023/11/07 10:12:38;;;;;;;2.15;0.90;;;;;;;;;;5912421;28;20044;-68
2023/11/07 10:15:29;;;;;;;1.70;0.95;;;;;;;;;;5912652;28;20445;-67
2023/11/07 10:18:20;;;;;;;6.38;1.50;;;;;;;;;;5912371;28;20144;-67
2023/11/07 10:21:11;;;;;;;1.65;0.30;;;;;;;;;;5912716;28;20079;-67
2023/11/07 10:24:02;;;;;;;0.43;0.43;;;;;;;;;;5912215;28;20055;-68
2023/11/07 10:26:59;;;;;;;0.38;0.20;;;;;;;;;;5912888;28;20044;-67
2023/11/07 10:29:51;;;;;;;2.33;1.30;;;;;;;;;;5912494;28;20418;-67
2023/11/07 10:32:55;;;;;;;4.63;0.57;;;;;;;;;;5912655;28;20045;-67
2023/11/07 10:35:54;;;;;;;1.20;0.52;;;;;;;;;;5912454;28;20052;-67
2023/11/07 10:38:46;;;;;;;1.55;0.77;;;;;;;;;;5912110;28;20049;-67
2023/11/07 10:41:37;;;;;;;0.60;0.57;;;;;;;;;;5912343;28;20125;-67
2023/11/07 10:44:31;;;;;;;3.45;1.23;;;;;;;;;;5912022;28;20044;-67
2023/11/07 10:47:22;;;;;;;2.70;1.00;;;;;;;;;;5912087;28;20052;-68
2023/11/07 10:50:17;;;;;;;4.68;1.65;;;;;;;;;;5911918;28;20460;-67
2023/11/07 10:53:07;;;;;;;2.55;1.17;;;;;;;;;;5910141;28;20421;-67
2023/11/07 10:56:00;;;;;;;8.63;2.05;;;;;;;;;;5910445;28;20055;-67
2023/11/07 10:58:59;;;;;;;3.35;1.75;;;;;;;;;;5912153;28;20051;-67
2023/11/07 11:01:52;;;;;;;10.60;0.95;;;;;;;;;;5910642;28;20056;-67
2023/11/07 11:04:48;;;;;;;2.15;1.00;;;;;;;;;;5911893;28;20044;-67
2023/11/07 11:07:57;;;;;;;0.45;0.45;;;;;;;;;;5911885;28;20543;-68
2023/11/07 11:10:48;;;;;;;3.28;1.35;;;;;;;;;;5910268;28;20056;-67
2023/11/07 11:13:41;;;;;;;2.33;1.05;;;;;;;;;;5910061;28;20418;-67
2023/11/07 11:16:33;;;;;;;0.70;0.70;;;;;;;;;;5911470;28;20063;-67
2023/11/07 11:19:47;;;;;;;2.53;1.30;;;;;;;;;;5911295;28;20048;-67
2023/11/07 11:22:47;;;;;;;3.63;1.42;;;;;;;;;;5910014;28;20490;-67
2023/11/07 11:26:20;;;;;;;1.85;0.93;;;;;;;;;;5911370;28;20084;-67
2023/11/07 11:29:28;;;;;;;1.90;0.80;;;;;;;;;;5911174;28;20045;-68
2023/11/07 11:32:27;;;;;;;3.00;1.23;;;;;;;;;;5911389;28;20048;-68
2023/11/07 11:35:19;;;;;;;8.38;1.15;;;;;;;;;;5911048;28;20048;-67
2023/11/07 11:38:20;;;;;;;5.35;1.23;;;;;;;;;;5910878;28;20395;-68
2023/11/07 11:41:11;;;;;;;0.60;0.55;;;;;;;;;;5909638;28;20048;-68
2023/11/07 11:44:13;;;;;;;6.65;1.20;;;;;;;;;;5909603;28;20422;-68
2023/11/07 11:47:04;;;;;;;3.88;1.50;;;;;;;;;;5910868;28;20083;-68
2023/11/07 11:50:15;;;;;;;2.17;0.93;;;;;;;;;;5911241;28;20521;-67
2023/11/07 11:53:08;;;;;;;1.60;0.73;;;;;;;;;;5909310;28;20056;-68
2023/11/07 11:55:59;;;;;;;0.50;0.50;;;;;;;;;;5911175;28;20513;-67
2023/11/07 11:59:10;;;;;;;2.30;1.05;;;;;;;;;;5910745;28;20072;-67
2023/11/07 12:02:04;;;;;;;0.75;0.73;;;;;;;;;;5910280;28;20044;-68
2023/11/07 12:05:17;;;;;;;3.28;0.65;;;;;;;;;;5910440;28;20079;-68
2023/11/07 12:08:44;;;;;;;2.72;0.75;;;;;;;;;;5910129;28;20051;-68
2023/11/07 12:11:43;;;;;;;2.78;1.40;;;;;;;;;;5910572;28;20051;-67
2023/11/07 12:14:57;;;;;;;1.73;0.95;;;;;;;;;;5910256;28;20133;-67
2023/11/07 12:17:51;;;;;;;15.48;1.52;;;;;;;;;;5910472;28;20504;-67
2023/11/07 12:20:42;;;;;;;2.17;0.68;;;;;;;;;;5910034;28;20414;-68
2023/11/07 12:23:32;;;;;;;0.52;0.47;;;;;;;;;;5909845;28;20044;-68
2023/11/07 12:26:40;;;;;;;4.05;1.02;;;;;;;;;;5909853;28;20056;-68
2023/11/07 12:29:38;;;;;;;0.60;0.60;;;;;;;;;;5909623;28;20127;-68
2023/11/07 12:32:29;;;;;;;4.67;0.83;;;;;;;;;;5909861;28;20657;-68
2023/11/07 12:35:23;;;;;;;6.28;2.13;;;;;;;;;;5909904;28;20126;-68
2023/11/07 12:38:15;;;;;;;0.60;0.60;;;;;;;;;;5909938;28;20055;-67
2023/11/07 12:41:07;;;;;;;3.75;1.27;;;;;;;;;;5910272;28;20052;-68
2023/11/07 12:44:09;;;;;;;1.33;0.82;;;;;;;;;;5909177;28;20052;-68
2023/11/07 12:47:00;;;;;;;2.75;2.00;;;;;;;;;;5908640;28;20047;-67
2023/11/07 12:49:54;;;;;;;2.70;1.35;;;;;;;;;;5908302;28;20094;-67
2023/11/07 12:52:58;;;;;;;9.13;3.05;;;;;;;;;;5909634;28;20494;-68
2023/11/07 12:55:54;;;;;;;20.55;11.50;;;;;;;;;;5909432;28;20410;-68
2023/11/07 12:58:45;;;;;;;6.38;4.15;;;;;;;;;;5909305;28;20044;-68
2023/11/07 13:01:36;;;;;;;9.18;3.88;;;;;;;;;;5909233;28;20044;-67
2023/11/07 13:04:27;;;;;;;10.70;5.47;;;;;;;;;;5907978;28;20051;-67
2023/11/07 13:07:18;;;;;;;9.00;4.72;;;;;;;;;;5909292;28;20063;-68
2023/11/07 13:10:16;;;;;;;8.77;4.10;;;;;;;;;;5908640;28;20044;-68
2023/11/07 13:13:06;;;;;;;2.63;1.80;;;;;;;;;;5909270;28;20060;-68
2023/11/07 13:15:57;;;;;;;6.25;3.08;;;;;;;;;;5909496;28;20442;-68
2023/11/07 13:19:00;;;;;;;5.78;2.95;;;;;;;;;;5908628;28;20086;-67
2023/11/07 13:21:51;;;;;;;1.80;1.20;;;;;;;;;;5908194;28;20094;-68
2023/11/07 13:24:43;;;;;;;0.98;0.93;;;;;;;;;;5908837;28;20048;-68
2023/11/07 13:27:34;;;;;;;4.75;0.82;;;;;;;;;;5909021;28;20052;-68
2023/11/07 13:30:25;;;;;;;2.83;1.00;;;;;;;;;;5908760;28;20060;-68
2023/11/07 13:33:15;;;;;;;2.90;1.08;;;;;;;;;;5908845;28;20135;-68
2023/11/07 13:36:08;;;;;;;1.42;0.82;;;;;;;;;;5909078;28;20151;-68
2023/11/07 13:38:58;;;;;;;2.28;1.42;;;;;;;;;;5909252;28;20693;-68
2023/11/07 13:41:50;;;;;;;1.08;0.98;;;;;;;;;;5908993;28;20044;-68
2023/11/07 13:44:40;;;;;;;2.92;1.60;;;;;;;;;;5908727;28;20048;-68
2023/11/07 13:47:31;;;;;;;2.47;1.58;;;;;;;;;;5908610;28;20051;-68
2023/11/07 13:50:23;;;;;;;3.70;1.70;;;;;;;;;;5908908;28;20048;-68
2023/11/07 13:53:15;;;;;;;3.78;2.03;;;;;;;;;;5908407;28;20413;-68
2023/11/07 13:56:08;;;;;;;2.30;1.75;;;;;;;;;;5908574;28;20426;-68
2023/11/07 13:59:00;;;;;;;4.07;2.95;;;;;;;;;;5907582;28;20049;-68
2023/11/07 14:01:51;;;;;;;8.80;1.95;;;;;;;;;;5908552;28;20056;-67
2023/11/07 14:04:42;;;;;;;8.30;2.65;;;;;;;;;;5908363;28;20052;-67
2023/11/07 14:07:33;;;;;;;4.35;2.53;;;;;;;;;;5908524;28;20410;-68
2023/11/07 14:10:24;;;;;;;7.40;5.18;;;;;;;;;;5908120;28;20068;-67
2023/11/07 14:13:15;;;;;;;7.50;4.70;;;;;;;;;;5908416;28;20059;-67
2023/11/07 14:16:06;;;;;;;9.23;4.07;;;;;;;;;;5908082;28;20056;-67
2023/11/07 14:18:57;;;;;;;7.82;2.70;;;;;;;;;;5908927;28;20517;-67
2023/11/07 14:21:49;;;;;;;5.93;3.33;;;;;;;;;;5908263;28;20061;-67
2023/11/07 14:24:40;;;;;;;5.18;3.72;;;;;;;;;;5908013;28;20123;-67
2023/11/07 14:27:31;;;;;;;9.18;5.47;;;;;;;;;;5908115;28;20040;-67
2023/11/07 14:30:22;;;;;;;6.00;4.60;;;;;;;;;;5912333;28;20052;-67
2023/11/07 14:33:18;;;;;;;7.28;4.97;;;;;;;;;;5912041;28;20040;-67
2023/11/07 14:36:11;;;;;;;10.38;4.55;;;;;;;;;;5912294;28;20052;-67
2023/11/07 14:39:03;;;;;;;11.90;5.07;;;;;;;;;;5911579;28;20044;-67
2023/11/07 14:41:54;;;;;;;9.25;4.57;;;;;;;;;;5905583;28;20438;-67
2023/11/07 14:44:45;;;;;;;7.60;4.68;;;;;;;;;;5888667;28;20045;-67
2023/11/07 14:47:43;;;;;;;12.18;5.35;;;;;;;;;;5888549;28;20060;-67
2023/11/07 14:50:38;;;;;;;10.00;5.63;;;;;;;;;;5888928;28;20052;-67
2023/11/07 14:53:30;;;;;;;9.48;4.75;;;;;;;;;;5888816;28;20041;-66
2023/11/07 14:56:22;;;;;;;10.65;6.38;;;;;;;;;;5888117;28;20095;-67
2023/11/07 14:59:15;;;;;;;31.23;8.25;;;;;;;;;;5889017;28;20060;-67
2023/11/07 15:02:06;;;;;;;18.17;9.88;;;;;;;;;;5888200;28;20064;-67
2023/11/07 15:05:11;;;;;;;34.88;20.02;;;;;;;;;;5888715;28;20068;-67
2023/11/07 15:08:02;;;;;;;32.92;17.10;;;;;;;;;;5888540;28;20045;-67
2023/11/07 15:10:53;;;;;;;22.95;13.80;;;;;;;;;;5888494;28;20118;-66
2023/11/07 15:13:44;;;;;;;18.60;10.35;;;;;;;;;;5888337;28;20052;-67
2023/11/07 15:16:35;;;;;;;18.63;11.23;;;;;;;;;;5888494;28;20052;-66
2023/11/07 15:19:25;;;;;;;9.57;6.20;;;;;;;;;;5888475;28;20040;-67
2023/11/07 15:22:16;;;;;;;9.95;5.95;;;;;;;;;;5887665;28;20048;-66
2023/11/07 15:25:16;;;;;;;10.43;6.60;;;;;;;;;;5887871;28;20045;-67
2023/11/07 15:28:07;;;;;;;6.00;4.60;;;;;;;;;;5888185;28;20055;-67
2023/11/07 15:30:58;;;;;;;9.98;5.70;;;;;;;;;;5888193;28;20190;-67
2023/11/07 15:33:49;;;;;;;14.00;6.07;;;;;;;;;;5887846;28;20131;-66
2023/11/07 15:36:40;;;;;;;40.78;14.70;;;;;;;;;;5887621;28;20098;-66
2023/11/07 15:39:31;;;;;;;26.17;12.00;;;;;;;;;;5887417;28;20056;-66
2023/11/07 15:42:22;;;;;;;23.33;13.30;;;;;;;;;;5907506;28;20055;-66
2023/11/07 15:45:14;;;;;;;28.15;10.95;;;;;;;;;;5908232;28;20048;-67
2023/11/07 15:48:07;;;;;;;31.08;13.00;;;;;;;;;;5887736;28;20052;-67
2023/11/07 15:51:01;;;;;;;30.20;10.10;;;;;;;;;;5887891;28;20045;-67
2023/11/07 15:53:51;;;;;;;12.60;6.25;;;;;;;;;;5887425;28;20068;-67
2023/11/07 15:56:48;;;;;;;6.15;4.60;;;;;;;;;;5886884;28;20128;-66
2023/11/07 15:59:39;;;;;;;10.02;5.20;;;;;;;;;;5887776;28;20201;-66
2023/11/07 16:02:30;;;;;;;6.22;4.03;;;;;;;;;;5887174;28;20044;-66
2023/11/07 16:05:26;;;;;;;9.07;7.72;;;;;;;;;;5887068;28;20057;-67
2023/11/07 16:08:17;;;;;;;10.68;7.07;;;;;;;;;;5887268;28;20056;-66
2023/11/07 16:11:08;;;;;;;8.10;5.30;;;;;;;;;;5886844;28;20056;-67
2023/11/07 16:13:59;;;;;;;24.17;10.05;;;;;;;;;;5887088;28;20056;-66
2023/11/07 16:16:49;;;;;;;11.18;5.88;;;;;;;;;;5887176;28;20491;-66
2023/11/07 16:19:40;;;;;;;26.00;9.18;;;;;;;;;;5887166;28;20049;-66
2023/11/07 16:22:31;;;;;;;37.40;11.75;;;;;;;;;;5886700;28;20045;-66
2023/11/07 16:25:23;;;;;;;15.82;8.43;;;;;;;;;;5885460;28;20049;-66
2023/11/07 16:28:14;;;;;;;24.25;11.35;;;;;;;;;;5886701;28;20063;-66
2023/11/07 16:31:05;;;;;;;21.48;11.45;;;;;;;;;;5885431;28;20076;-67
2023/11/07 16:34:00;;;;;;;9.48;6.82;;;;;;;;;;5894244;28;20044;-73
2023/11/07 16:36:51;;;;;;;28.92;11.20;;;;;;;;;;5893493;28;20060;-73
2023/11/07 16:39:42;;;;;;;11.63;7.63;;;;;;;;;;5886812;28;20094;-73
2023/11/07 16:42:32;;;;;;;28.58;16.40;;;;;;;;;;5908010;28;20048;-73
2023/11/07 16:45:23;;;;;;;19.50;9.15;;;;;;;;;;5905617;28;20191;-73
2023/11/07 16:48:14;;;;;;;7.50;5.43;;;;;;;;;;5886401;28;20422;-66
2023/11/07 16:51:05;;;;;;;7.25;5.72;;;;;;;;;;5885798;28;20052;-73
2023/11/07 16:53:59;;;;;;;15.00;8.13;;;;;;;;;;5884601;28;20089;-73
2023/11/07 16:56:49;;;;;;;22.13;12.27;;;;;;;;;;5893236;28;20055;-73
2023/11/07 16:59:42;;;;;;;8.23;5.00;;;;;;;;;;5886301;28;20053;-73
2023/11/07 17:02:32;;;;;;;18.10;9.57;;;;;;;;;;5887759;28;20052;-73
2023/11/07 17:05:23;;;;;;;13.73;8.35;;;;;;;;;;5891319;28;20037;-73
2023/11/07 17:08:14;;;;;;;20.77;11.32;;;;;;;;;;5896499;28;20048;-72
2023/11/07 17:11:05;;;;;;;9.20;5.50;;;;;;;;;;5893234;28;20053;-72
2023/11/07 17:13:59;;;;;;;6.07;4.65;;;;;;;;;;5897023;28;20129;-73
2023/11/07 17:16:50;;;;;;;13.75;8.88;;;;;;;;;;5887741;28;20167;-73
2023/11/07 17:19:44;;;;;;;17.35;10.15;;;;;;;;;;5886040;28;20041;-73
2023/11/07 17:22:35;;;;;;;18.23;10.60;;;;;;;;;;5885476;28;20049;-73
2023/11/07 17:25:26;;;;;;;12.85;8.98;;;;;;;;;;5885174;28;20048;-72
2023/11/07 17:28:20;;;;;;;20.17;9.27;;;;;;;;;;5885648;28;20057;-73
2023/11/07 17:31:12;;;;;;;18.65;11.07;;;;;;;;;;5885805;28;20048;-72
2023/11/07 17:34:06;;;;;;;18.00;9.30;;;;;;;;;;5885405;28;20056;-71
2023/11/07 17:36:58;;;;;;;19.52;10.32;;;;;;;;;;5886181;28;20057;-72
2023/11/07 17:39:49;;;;;;;19.67;12.50;;;;;;;;;;5885500;28;20392;-73
2023/11/07 17:42:40;;;;;;;26.88;17.38;;;;;;;;;;5888439;28;20044;-73